ADDS METAR Data INFO
IDs: Format: Raw Decoded Include TAF

Data at: 0642 UTC 23 Feb 2018

METAR for:KCTY (Cross City Arpt, FL, US)
Text:KCTY 230635Z AUTO 08003KT 10SM CLR 20/19 A3041 RMK AO2 T01950194
Temperature: 19.5°C ( 67°F)
Dewpoint: 19.4°C ( 67°F) [RH = 99%]
Pressure (altimeter):30.41 inches Hg (1029.9 mb)
Winds:from the E (80 degrees) at 3 MPH (3 knots; 1.5 m/s)
Visibility:10 or more sm (16+ km)
Ceiling:at least 12,000 feet AGL
Clouds:sky clear below 12,000 feet AGL
QC Flag:automated observation with no human augmentation